Time;durP1;ratioP1;P1;durP2;ratioP2;P2;SDS_P1;SDS_P2;PMS_P1;PMS_P2;Temp;Humidity;BMP_temperature;BMP_pressure;BME280_temperature;BME280_humidity;BME280_pressure;Samples;Min_cycle;Max_cycle;Signal;HPM_P1;HPM_P2
2021/12/13 00:00:41;;;;;;;;;;;2.40;99.90;;;;;;5002616;28;20368;-74
2021/12/13 00:03:11;;;;;;;;;;;2.40;99.90;;;;;;5000073;28;19956;-74
2021/12/13 00:05:41;;;;;;;;;;;2.40;99.90;;;;;;4999112;28;19929;-74
2021/12/13 00:08:09;;;;;;;;;;;2.40;99.90;;;;;;5005395;28;19928;-74
2021/12/13 00:10:38;;;;;;;;;;;2.40;99.90;;;;;;5000283;28;19926;-74
2021/12/13 00:13:10;;;;;;;;;;;2.40;99.90;;;;;;4999794;28;20277;-74
2021/12/13 00:15:39;;;;;;;;;;;2.40;99.90;;;;;;5000946;28;19925;-74
2021/12/13 00:18:07;;;;;;;;;;;2.40;99.90;;;;;;4996543;28;19926;-74
2021/12/13 00:20:38;;;;;;;;;;;2.40;99.90;;;;;;5015619;28;19987;-74
2021/12/13 00:23:11;;;;;;;;;;;2.40;99.90;;;;;;4995660;28;19933;-74
2021/12/13 00:25:40;;;;;;;;;;;2.40;99.90;;;;;;4998218;28;20324;-73
2021/12/13 00:28:10;;;;;;;;;;;2.40;99.90;;;;;;5008442;28;19926;-75
2021/12/13 00:30:41;;;;;;;;;;;2.40;99.90;;;;;;5005287;28;19926;-74
2021/12/13 00:33:15;;;;;;;;;;;2.40;99.90;;;;;;5006290;28;19925;-73
2021/12/13 00:35:43;;;;;;;;;;;2.40;99.90;;;;;;5008629;28;20347;-75
2021/12/13 00:38:12;;;;;;;;;;;2.40;99.90;;;;;;5008279;28;19945;-74
2021/12/13 00:40:42;;;;;;;;;;;2.40;99.90;;;;;;4998595;28;19937;-74
2021/12/13 00:43:12;;;;;;;;;;;2.40;99.90;;;;;;5011656;28;19934;-74
2021/12/13 00:45:41;;;;;;;;;;;2.40;99.90;;;;;;5012801;28;19925;-74
2021/12/13 00:48:08;;;;;;;;;;;2.40;99.90;;;;;;5001588;28;20337;-74
2021/12/13 00:50:38;;;;;;;;;;;2.40;99.90;;;;;;5002244;28;19925;-74
2021/12/13 00:53:06;;;;;;;;;;;2.40;99.90;;;;;;5000520;28;20675;-74
2021/12/13 00:55:33;;;;;;;;;;;2.40;99.90;;;;;;4998506;28;19964;-74
2021/12/13 00:58:09;;;;;;;;;;;2.40;99.90;;;;;;5006329;28;20379;-74
2021/12/13 01:00:40;;;;;;;;;;;2.40;99.90;;;;;;4992891;28;19930;-74
2021/12/13 01:03:10;;;;;;;;;;;2.40;99.90;;;;;;5001354;28;19925;-74
2021/12/13 01:06:04;;;;;;;;;;;2.40;99.90;;;;;;5000802;28;19932;-72
2021/12/13 01:08:42;;;;;;;;;;;2.40;99.90;;;;;;4972236;28;19929;-74
2021/12/13 01:11:17;;;;;;;;;;;2.40;99.90;;;;;;5001035;28;19934;-74
2021/12/13 01:13:49;;;;;;;;;;;2.40;99.90;;;;;;5003405;28;19961;-74
2021/12/13 01:16:34;;;;;;;;;;;2.40;99.90;;;;;;5007423;28;20396;-74
2021/12/13 01:19:26;;;;;;;;;;;2.40;99.90;;;;;;4996423;28;20323;-74
2021/12/13 01:21:58;;;;;;;;;;;2.40;99.90;;;;;;5000333;28;19968;-73
2021/12/13 01:24:52;;;;;;;;;;;2.40;99.90;;;;;;5004768;28;20019;-74
2021/12/13 01:27:28;;;;;;;;;;;2.40;99.90;;;;;;4998094;28;19933;-73
2021/12/13 01:29:55;;;;;;;;;;;2.40;99.90;;;;;;5004652;28;20403;-74
2021/12/13 01:32:24;;;;;;;;;;;2.40;99.90;;;;;;5014650;28;19925;-74
2021/12/13 01:34:51;;;;;;;;;;;2.40;99.90;;;;;;5003782;28;21275;-74
2021/12/13 01:37:18;;;;;;;;;;;2.40;99.90;;;;;;5004602;28;19933;-74
2021/12/13 01:39:46;;;;;;;;;;;2.40;99.90;;;;;;5000902;28;19930;-74
2021/12/13 01:42:14;;;;;;;;;;;2.40;99.90;;;;;;5002016;28;19925;-74
2021/12/13 01:44:43;;;;;;;;;;;2.40;99.90;;;;;;5010946;28;19933;-74
2021/12/13 01:47:11;;;;;;;;;;;2.40;99.90;;;;;;4993345;28;19944;-74
2021/12/13 01:49:41;;;;;;;;;;;2.40;99.90;;;;;;4999041;28;19926;-74
2021/12/13 01:52:14;;;;;;;;;;;2.40;99.90;;;;;;5006201;28;20016;-74
2021/12/13 01:54:41;;;;;;;;;;;2.40;99.90;;;;;;5007130;28;19960;-76
2021/12/13 01:57:22;;;;;;;;;;;2.40;99.90;;;;;;4999206;28;19925;-73
2021/12/13 01:59:53;;;;;;;;;;;2.40;99.90;;;;;;4995642;28;19956;-74
2021/12/13 02:02:22;;;;;;;;;;;2.40;99.90;;;;;;5010343;28;19952;-76
2021/12/13 02:04:57;;;;;;;;;;;2.40;99.90;;;;;;5004848;28;19933;-74
2021/12/13 02:07:25;;;;;;;;;;;2.40;99.90;;;;;;5008549;28;21232;-76
2021/12/13 02:09:52;;;;;;;;;;;2.40;99.90;;;;;;5010616;28;19925;-76
2021/12/13 02:12:21;;;;;;;;;;;2.40;99.90;;;;;;4998812;28;19925;-76
2021/12/13 02:16:55;;;;;;;;;;;2.50;99.90;;;;;;5006005;28;19926;-76
2021/12/13 02:17:35;;;;;;;;;;;2.40;99.90;;;;;;4999014;28;20434;-76
2021/12/13 02:20:07;;;;;;;;;;;2.40;99.90;;;;;;5009472;28;20031;-76
2021/12/13 02:22:36;;;;;;;;;;;2.40;99.90;;;;;;5006456;28;19925;-75
2021/12/13 02:25:06;;;;;;;;;;;2.40;99.90;;;;;;4995140;28;20020;-75
2021/12/13 02:27:36;;;;;;;;;;;2.40;99.90;;;;;;5009593;28;20319;-76
2021/12/13 02:30:06;;;;;;;;;;;2.40;99.90;;;;;;4997813;28;19934;-76
2021/12/13 02:32:35;;;;;;;;;;;2.40;99.90;;;;;;5009467;28;19925;-76
2021/12/13 02:35:03;;;;;;;;;;;2.40;99.90;;;;;;5005526;28;19930;-77
2021/12/13 02:37:30;;;;;;;;;;;2.40;99.90;;;;;;5014722;28;19983;-75
2021/12/13 02:40:01;;;;;;;;;;;2.40;99.90;;;;;;4999287;28;19930;-76
2021/12/13 02:42:30;;;;;;;;;;;2.40;99.90;;;;;;5005955;28;20391;-76
2021/12/13 02:45:01;;;;;;;;;;;2.40;99.90;;;;;;4999289;28;20020;-75
2021/12/13 02:47:30;;;;;;;;;;;2.40;99.90;;;;;;5004026;28;20350;-76
2021/12/13 02:49:57;;;;;;;;;;;2.50;99.90;;;;;;5090166;23;20022;-76
2021/12/13 02:52:24;;;;;;;;;;;2.40;99.90;;;;;;5041717;22;19929;-77
2021/12/13 02:54:52;;;;;;;;;;;2.40;99.90;;;;;;5007040;28;19925;-76
2021/12/13 02:57:25;;;;;;;;;;;2.40;99.90;;;;;;4980082;28;20315;-75
2021/12/13 02:59:53;;;;;;;;;;;2.40;99.90;;;;;;5005872;28;19925;-76
2021/12/13 03:02:22;;;;;;;;;;;2.50;99.90;;;;;;4999575;28;19934;-77
2021/12/13 03:04:49;;;;;;;;;;;2.50;99.90;;;;;;5003467;28;20415;-76
2021/12/13 03:07:18;;;;;;;;;;;2.40;99.90;;;;;;5001265;28;19972;-76
2021/12/13 03:09:46;;;;;;;;;;;2.40;99.90;;;;;;4980060;28;20311;-74
2021/12/13 03:12:17;;;;;;;;;;;2.40;99.90;;;;;;5039810;23;19925;-73
2021/12/13 03:14:47;;;;;;;;;;;2.40;99.90;;;;;;5033803;28;19987;-74
2021/12/13 03:17:16;;;;;;;;;;;2.40;99.90;;;;;;5010274;28;20394;-74
2021/12/13 03:19:53;;;;;;;;;;;2.40;99.90;;;;;;5022126;28;20012;-76
2021/12/13 03:22:39;;;;;;;;;;;2.40;99.90;;;;;;5019991;28;19939;-74
2021/12/13 03:25:08;;;;;;;;;;;2.40;99.90;;;;;;5023582;28;19925;-73
2021/12/13 03:27:53;;;;;;;;;;;2.40;99.90;;;;;;5085894;22;19925;-77
2021/12/13 03:30:24;;;;;;;;;;;2.40;99.90;;;;;;5001106;28;19933;-77
2021/12/13 03:32:55;;;;;;;;;;;2.40;99.90;;;;;;5023577;28;19930;-78
2021/12/13 03:35:23;;;;;;;;;;;2.40;99.90;;;;;;5005805;28;19936;-78
2021/12/13 03:37:55;;;;;;;;;;;2.40;99.90;;;;;;5023204;28;19926;-78
2021/12/13 03:40:23;;;;;;;;;;;2.40;99.90;;;;;;5010513;28;19930;-78
2021/12/13 03:42:52;;;;;;;;;;;2.40;99.90;;;;;;5010081;28;19965;-78
2021/12/13 03:45:20;;;;;;;;;;;2.40;99.90;;;;;;5007756;28;20315;-78
2021/12/13 03:47:51;;;;;;;;;;;2.40;99.90;;;;;;5010585;28;19933;-77
2021/12/13 03:50:19;;;;;;;;;;;2.40;99.90;;;;;;5014526;28;19949;-78
2021/12/13 03:52:47;;;;;;;;;;;2.40;99.90;;;;;;5007571;28;19934;-78
2021/12/13 03:55:16;;;;;;;;;;;2.40;99.90;;;;;;5006888;28;19929;-78
2021/12/13 03:57:45;;;;;;;;;;;2.40;99.90;;;;;;5004679;28;20352;-77
2021/12/13 04:00:14;;;;;;;;;;;2.40;99.90;;;;;;5005474;28;19936;-78
2021/12/13 04:02:41;;;;;;;;;;;2.40;99.90;;;;;;5002641;28;20402;-78
2021/12/13 04:05:11;;;;;;;;;;;2.40;99.90;;;;;;5005329;28;20028;-78
2021/12/13 04:07:42;;;;;;;;;;;2.40;99.90;;;;;;5009148;28;19929;-77
2021/12/13 04:10:10;;;;;;;;;;;2.40;99.90;;;;;;5002391;28;19936;-78
2021/12/13 04:12:43;;;;;;;;;;;2.40;99.90;;;;;;5000373;28;19926;-78
2021/12/13 04:15:15;;;;;;;;;;;2.40;99.90;;;;;;5006161;28;19991;-78
2021/12/13 04:17:55;;;;;;;;;;;2.40;99.90;;;;;;5010512;28;19935;-78
2021/12/13 04:20:26;;;;;;;;;;;2.50;99.90;;;;;;5009409;28;20370;-78
2021/12/13 04:22:54;;;;;;;;;;;2.40;99.90;;;;;;5011471;28;20434;-78
2021/12/13 04:25:23;;;;;;;;;;;2.40;99.90;;;;;;4997360;28;19933;-78
2021/12/13 04:27:55;;;;;;;;;;;2.40;99.90;;;;;;5000007;28;20017;-78
2021/12/13 04:30:23;;;;;;;;;;;2.40;99.90;;;;;;5011038;28;20222;-77
2021/12/13 04:32:51;;;;;;;;;;;2.40;99.90;;;;;;5007088;28;19926;-78
2021/12/13 04:35:18;;;;;;;;;;;2.40;99.90;;;;;;5010305;28;19948;-78
2021/12/13 04:37:48;;;;;;;;;;;2.50;99.90;;;;;;5004835;28;19934;-78
2021/12/13 04:40:17;;;;;;;;;;;2.50;99.90;;;;;;5004650;28;19925;-78
2021/12/13 04:42:44;;;;;;;;;;;2.50;99.90;;;;;;5008296;28;19964;-79
2021/12/13 04:45:13;;;;;;;;;;;2.40;99.90;;;;;;4999393;28;19930;-78
2021/12/13 04:47:47;;;;;;;;;;;2.40;99.90;;;;;;5017980;28;19929;-78
2021/12/13 04:50:16;;;;;;;;;;;2.40;99.90;;;;;;5009967;28;19932;-77
2021/12/13 04:52:44;;;;;;;;;;;2.40;99.90;;;;;;5005511;28;19983;-78
2021/12/13 04:55:15;;;;;;;;;;;2.40;99.90;;;;;;5005541;28;20299;-77
2021/12/13 04:57:42;;;;;;;;;;;2.40;99.90;;;;;;5006312;28;19940;-77
2021/12/13 05:00:11;;;;;;;;;;;2.40;99.90;;;;;;5004988;28;19933;-78
2021/12/13 05:02:42;;;;;;;;;;;2.50;99.90;;;;;;5000988;28;19926;-78
2021/12/13 05:05:09;;;;;;;;;;;2.40;99.90;;;;;;5007208;28;20000;-78
2021/12/13 05:07:36;;;;;;;;;;;2.40;99.90;;;;;;5003844;28;19940;-78
2021/12/13 05:10:05;;;;;;;;;;;2.50;99.90;;;;;;4998333;28;20352;-78
2021/12/13 05:12:34;;;;;;;;;;;2.40;99.90;;;;;;5003137;28;19934;-77
2021/12/13 05:15:02;;;;;;;;;;;2.50;99.90;;;;;;4997029;28;20004;-78
2021/12/13 05:17:32;;;;;;;;;;;2.50;99.90;;;;;;5005414;28;20037;-78
2021/12/13 05:20:01;;;;;;;;;;;2.50;99.90;;;;;;5021525;28;19933;-77
2021/12/13 05:22:29;;;;;;;;;;;2.40;99.90;;;;;;5000671;28;19930;-78
2021/12/13 05:25:02;;;;;;;;;;;2.50;99.90;;;;;;4999551;28;20304;-78
2021/12/13 05:27:31;;;;;;;;;;;2.50;99.90;;;;;;5000375;28;19980;-78
2021/12/13 05:30:07;;;;;;;;;;;2.50;99.90;;;;;;5005761;28;19933;-78
2021/12/13 05:32:35;;;;;;;;;;;2.40;99.90;;;;;;4997909;28;19926;-79
2021/12/13 05:35:08;;;;;;;;;;;2.50;99.90;;;;;;5000349;28;19952;-78
2021/12/13 05:37:40;;;;;;;;;;;2.50;99.90;;;;;;5003898;28;19933;-78
2021/12/13 05:40:09;;;;;;;;;;;2.50;99.90;;;;;;5000560;28;19926;-78
2021/12/13 05:42:37;;;;;;;;;;;2.50;99.90;;;;;;5005340;28;20021;-78
2021/12/13 05:45:07;;;;;;;;;;;2.50;99.90;;;;;;5002405;28;19933;-78
2021/12/13 05:47:35;;;;;;;;;;;2.40;99.90;;;;;;5001912;28;19941;-79
2021/12/13 05:50:02;;;;;;;;;;;2.50;99.90;;;;;;5000464;28;20437;-79
2021/12/13 05:52:32;;;;;;;;;;;2.50;99.90;;;;;;5003118;28;20376;-79
2021/12/13 05:55:02;;;;;;;;;;;2.50;99.90;;;;;;5004133;28;19929;-79
2021/12/13 05:57:31;;;;;;;;;;;2.50;99.90;;;;;;5006425;28;20412;-79
2021/12/13 05:59:59;;;;;;;;;;;2.50;99.90;;;;;;5014678;28;19933;-79
2021/12/13 06:02:41;;;;;;;;;;;2.50;99.90;;;;;;5003945;28;19930;-79
2021/12/13 06:05:09;;;;;;;;;;;2.50;99.90;;;;;;5008714;28;19934;-79
2021/12/13 06:07:37;;;;;;;;;;;2.50;99.90;;;;;;4999905;28;19984;-79
2021/12/13 06:10:06;;;;;;;;;;;2.50;99.90;;;;;;5003388;28;19933;-79
2021/12/13 06:12:37;;;;;;;;;;;2.50;99.90;;;;;;4997186;28;19936;-78
2021/12/13 06:15:20;;;;;;;;;;;2.50;99.90;;;;;;4996749;28;19983;-79
2021/12/13 06:17:52;;;;;;;;;;;2.50;99.90;;;;;;5011958;28;20587;-78
2021/12/13 06:20:22;;;;;;;;;;;2.50;99.90;;;;;;5011937;28;19936;-79
2021/12/13 06:22:49;;;;;;;;;;;2.50;99.90;;;;;;5003641;28;21967;-78
2021/12/13 06:25:18;;;;;;;;;;;2.50;99.90;;;;;;5003134;28;19960;-78
2021/12/13 06:27:46;;;;;;;;;;;2.50;99.90;;;;;;5010174;28;20026;-78
2021/12/13 06:30:19;;;;;;;;;;;2.50;99.90;;;;;;5016792;28;20016;-78
2021/12/13 06:32:53;;;;;;;;;;;2.50;99.90;;;;;;5011870;28;20442;-78
2021/12/13 06:35:39;;;;;;;;;;;2.50;99.90;;;;;;5002069;28;19933;-78
2021/12/13 06:38:39;;;;;;;;;;;2.40;99.90;;;;;;5000297;28;19960;-78
2021/12/13 06:41:08;;;;;;;;;;;2.40;99.90;;;;;;5007140;28;19929;-78
2021/12/13 06:43:36;;;;;;;;;;;2.50;99.90;;;;;;5009822;28;20414;-78
2021/12/13 06:46:05;;;;;;;;;;;2.50;99.90;;;;;;5009941;28;19925;-78
2021/12/13 06:48:38;;;;;;;;;;;2.50;99.90;;;;;;5012617;28;19930;-78
2021/12/13 06:51:06;;;;;;;;;;;2.50;99.90;;;;;;4999443;28;19933;-78
2021/12/13 06:53:34;;;;;;;;;;;2.50;99.90;;;;;;5016899;28;20402;-78
2021/12/13 06:56:15;;;;;;;;;;;2.50;99.90;;;;;;4997101;28;20428;-78
2021/12/13 06:58:48;;;;;;;;;;;2.50;99.90;;;;;;4995800;28;19925;-78
2021/12/13 07:01:15;;;;;;;;;;;2.50;99.90;;;;;;4996546;28;19932;-79
2021/12/13 07:03:51;;;;;;;;;;;2.50;99.90;;;;;;5005723;28;19956;-79
2021/12/13 07:06:19;;;;;;;;;;;2.50;99.90;;;;;;4996921;28;19929;-79
2021/12/13 07:08:47;;;;;;;;;;;2.50;99.90;;;;;;5007917;28;19932;-78
2021/12/13 07:11:17;;;;;;;;;;;2.50;99.90;;;;;;4997059;28;19926;-78
2021/12/13 07:13:48;;;;;;;;;;;2.50;99.90;;;;;;5003467;28;20000;-79
2021/12/13 07:16:16;;;;;;;;;;;2.50;99.90;;;;;;4997181;28;20024;-79
2021/12/13 07:18:47;;;;;;;;;;;2.50;99.90;;;;;;5003111;28;19933;-79
2021/12/13 07:21:16;;;;;;;;;;;2.50;99.90;;;;;;5003741;28;20442;-78
2021/12/13 07:23:55;;;;;;;;;;;2.50;99.90;;;;;;5006703;28;20422;-78
2021/12/13 07:26:33;;;;;;;;;;;2.50;99.90;;;;;;5008921;28;20280;-79
2021/12/13 07:29:00;;;;;;;;;;;2.50;99.90;;;;;;5003616;28;19925;-78
2021/12/13 07:31:27;;;;;;;;;;;2.50;99.90;;;;;;5002192;28;19963;-79
2021/12/13 07:34:06;;;;;;;;;;;2.50;99.90;;;;;;5002211;28;19929;-79
2021/12/13 07:36:33;;;;;;;;;;;2.50;99.90;;;;;;4995773;28;19971;-78
2021/12/13 07:39:01;;;;;;;;;;;2.50;99.90;;;;;;5003323;28;19937;-78
2021/12/13 07:41:40;;;;;;;;;;;2.50;99.90;;;;;;5002667;28;22483;-79
2021/12/13 07:44:07;;;;;;;;;;;2.50;99.90;;;;;;5001600;28;20376;-79
2021/12/13 07:46:34;;;;;;;;;;;2.50;99.90;;;;;;5007499;28;19984;-78
2021/12/13 07:49:05;;;;;;;;;;;2.50;99.90;;;;;;5007470;28;19933;-78
2021/12/13 07:51:33;;;;;;;;;;;2.50;99.90;;;;;;4999518;28;19999;-79
2021/12/13 07:54:04;;;;;;;;;;;2.50;99.90;;;;;;5006234;28;19995;-79
2021/12/13 07:56:46;;;;;;;;;;;2.50;99.90;;;;;;5006808;28;19934;-79
2021/12/13 07:59:14;;;;;;;;;;;2.50;99.90;;;;;;4998956;28;19925;-79
2021/12/13 08:01:43;;;;;;;;;;;2.50;99.90;;;;;;5005610;28;19926;-79
2021/12/13 08:04:13;;;;;;;;;;;2.50;99.90;;;;;;4999309;28;19926;-78
2021/12/13 08:06:42;;;;;;;;;;;2.50;99.90;;;;;;4995729;28;20393;-79
2021/12/13 08:09:13;;;;;;;;;;;2.50;99.90;;;;;;5021986;28;19929;-79
2021/12/13 08:11:43;;;;;;;;;;;2.50;99.90;;;;;;5005538;28;19932;-80
2021/12/13 08:14:10;;;;;;;;;;;2.50;99.90;;;;;;4998989;28;19933;-79
2021/12/13 08:16:38;;;;;;;;;;;2.50;99.90;;;;;;5004429;28;19930;-79
2021/12/13 08:19:08;;;;;;;;;;;2.50;99.90;;;;;;5008799;28;19933;-79
2021/12/13 08:21:39;;;;;;;;;;;2.50;99.90;;;;;;5001629;28;19926;-79
2021/12/13 08:24:06;;;;;;;;;;;2.50;99.90;;;;;;5006506;28;19937;-79
2021/12/13 08:26:37;;;;;;;;;;;2.50;99.90;;;;;;5001034;28;19933;-79
2021/12/13 08:29:08;;;;;;;;;;;2.50;99.90;;;;;;5013357;28;20414;-79
2021/12/13 08:31:38;;;;;;;;;;;2.50;99.90;;;;;;5006185;28;20231;-78
2021/12/13 08:34:06;;;;;;;;;;;2.50;99.90;;;;;;4998778;28;19968;-79
2021/12/13 08:36:34;;;;;;;;;;;2.50;99.90;;;;;;5002469;28;19926;-79
2021/12/13 08:39:05;;;;;;;;;;;2.50;99.90;;;;;;4997698;28;19925;-79
2021/12/13 08:41:33;;;;;;;;;;;2.50;99.90;;;;;;4997800;28;20317;-79
2021/12/13 08:44:02;;;;;;;;;;;2.50;99.90;;;;;;5002736;28;19934;-79
2021/12/13 08:46:32;;;;;;;;;;;2.50;99.90;;;;;;5001530;28;19969;-78
2021/12/13 08:49:00;;;;;;;;;;;2.50;99.90;;;;;;5000871;28;20013;-78
2021/12/13 08:51:29;;;;;;;;;;;2.50;99.90;;;;;;4995715;28;19960;-79
2021/12/13 08:54:02;;;;;;;;;;;2.50;99.90;;;;;;5004279;28;20335;-79
2021/12/13 08:56:32;;;;;;;;;;;2.50;99.90;;;;;;5002183;28;19926;-78
2021/12/13 08:59:03;;;;;;;;;;;2.60;99.90;;;;;;4996357;28;19926;-79
2021/12/13 09:01:40;;;;;;;;;;;2.50;99.90;;;;;;5000409;28;19941;-79
2021/12/13 09:04:09;;;;;;;;;;;2.60;99.90;;;;;;5002411;28;19934;-79
2021/12/13 09:06:36;;;;;;;;;;;2.60;99.90;;;;;;4994564;28;20017;-79
2021/12/13 09:09:06;;;;;;;;;;;2.60;99.90;;;;;;5003820;28;19929;-78
2021/12/13 09:11:38;;;;;;;;;;;2.60;99.90;;;;;;4998606;28;19925;-79
2021/12/13 09:14:13;;;;;;;;;;;2.60;99.90;;;;;;4997572;28;19930;-78
2021/12/13 09:16:45;;;;;;;;;;;2.60;99.90;;;;;;5003678;28;19925;-78
2021/12/13 09:19:15;;;;;;;;;;;2.60;99.90;;;;;;5016894;28;20024;-77
2021/12/13 09:21:53;;;;;;;;;;;2.60;99.90;;;;;;4997686;28;19987;-78
2021/12/13 09:24:37;;;;;;;;;;;2.60;99.90;;;;;;4998434;28;19925;-79
2021/12/13 09:27:15;;;;;;;;;;;2.60;99.90;;;;;;4996664;28;21430;-79
2021/12/13 09:30:03;;;;;;;;;;;2.60;99.90;;;;;;4996704;28;19957;-79
2021/12/13 09:32:33;;;;;;;;;;;2.60;99.90;;;;;;4971464;28;19926;-79
2021/12/13 09:35:15;;;;;;;;;;;2.60;99.90;;;;;;5020225;28;19932;-79
2021/12/13 09:37:42;;;;;;;;;;;2.60;99.90;;;;;;5006665;28;20354;-78
2021/12/13 09:40:10;;;;;;;;;;;2.60;99.90;;;;;;5001041;28;19925;-78
2021/12/13 09:42:45;;;;;;;;;;;2.60;99.90;;;;;;5004209;28;19931;-78
2021/12/13 09:45:14;;;;;;;;;;;2.70;99.90;;;;;;5003785;28;20402;-78
2021/12/13 09:47:42;;;;;;;;;;;2.70;99.90;;;;;;5002740;28;20019;-78
2021/12/13 09:50:12;;;;;;;;;;;2.70;99.90;;;;;;5027869;28;19957;-79
2021/12/13 09:52:40;;;;;;;;;;;2.70;99.90;;;;;;5007248;28;20016;-79
2021/12/13 09:55:12;;;;;;;;;;;2.70;99.90;;;;;;5012884;28;19926;-79
2021/12/13 09:57:44;;;;;;;;;;;2.70;99.90;;;;;;5004398;28;19925;-78
2021/12/13 10:00:15;;;;;;;;;;;2.70;99.90;;;;;;5003854;28;19932;-78
2021/12/13 10:02:43;;;;;;;;;;;2.70;99.90;;;;;;4999303;28;19933;-79
2021/12/13 10:05:12;;;;;;;;;;;2.70;99.90;;;;;;5000515;28;20024;-78
2021/12/13 10:07:41;;;;;;;;;;;2.70;99.90;;;;;;4999063;28;19972;-78
2021/12/13 10:10:09;;;;;;;;;;;2.70;99.90;;;;;;4999995;28;20033;-78
2021/12/13 10:12:41;;;;;;;;;;;2.70;99.90;;;;;;5001735;28;19937;-78
2021/12/13 10:15:09;;;;;;;;;;;2.70;99.90;;;;;;5004903;28;20351;-78
2021/12/13 10:17:40;;;;;;;;;;;2.70;99.90;;;;;;5000903;28;19933;-78
2021/12/13 10:20:09;;;;;;;;;;;2.70;99.90;;;;;;5008088;28;19981;-79
2021/12/13 10:22:36;;;;;;;;;;;2.80;99.90;;;;;;4998768;28;19926;-78
2021/12/13 10:25:06;;;;;;;;;;;2.80;99.90;;;;;;5001169;28;20461;-79
2021/12/13 10:27:33;;;;;;;;;;;2.80;99.90;;;;;;4999447;28;19925;-79
2021/12/13 10:30:02;;;;;;;;;;;2.80;99.90;;;;;;5002242;28;19932;-79
2021/12/13 10:32:31;;;;;;;;;;;2.80;99.90;;;;;;5003020;28;20424;-78
2021/12/13 10:35:01;;;;;;;;;;;2.80;99.90;;;;;;4998828;28;19952;-79
2021/12/13 10:37:31;;;;;;;;;;;2.80;99.90;;;;;;5000928;28;19956;-79
2021/12/13 10:39:59;;;;;;;;;;;2.80;99.90;;;;;;5003562;28;19933;-79
2021/12/13 10:42:29;;;;;;;;;;;2.90;99.90;;;;;;4999916;28;19960;-78
2021/12/13 10:44:56;;;;;;;;;;;2.90;99.90;;;;;;5004965;28;19937;-79
2021/12/13 10:47:24;;;;;;;;;;;2.90;99.90;;;;;;4998897;28;19930;-78
2021/12/13 10:49:52;;;;;;;;;;;2.90;99.90;;;;;;5005984;28;19984;-79
2021/12/13 10:52:22;;;;;;;;;;;3.00;99.90;;;;;;4996172;28;19925;-79
2021/12/13 10:54:51;;;;;;;;;;;3.00;99.90;;;;;;5003956;28;19940;-78
2021/12/13 10:57:19;;;;;;;;;;;3.00;99.90;;;;;;5004293;28;20036;-78
2021/12/13 10:59:47;;;;;;;;;;;3.00;99.90;;;;;;5020517;28;20379;-79
2021/12/13 11:02:16;;;;;;;;;;;3.00;99.90;;;;;;4985975;28;20020;-78
2021/12/13 11:04:46;;;;;;;;;;;3.00;99.90;;;;;;5007263;28;20380;-78
2021/12/13 11:07:13;;;;;;;;;;;3.00;99.90;;;;;;4994200;28;20299;-79
2021/12/13 11:09:43;;;;;;;;;;;3.00;99.90;;;;;;4996816;28;19926;-79
2021/12/13 11:12:11;;;;;;;;;;;3.00;99.90;;;;;;4989064;28;19926;-79
2021/12/13 11:14:41;;;;;;;;;;;3.00;99.90;;;;;;5000092;28;19948;-79
2021/12/13 11:17:10;;;;;;;;;;;3.10;99.90;;;;;;4997402;28;20380;-80
2021/12/13 11:19:38;;;;;;;;;;;3.10;99.90;;;;;;4995140;28;20426;-79
2021/12/13 11:22:06;;;;;;;;;;;3.10;99.90;;;;;;4998746;28;19979;-79
2021/12/13 11:24:34;;;;;;;;;;;3.10;99.90;;;;;;4996037;28;20355;-79
2021/12/13 11:27:05;;;;;;;;;;;3.10;99.90;;;;;;5009258;28;19926;-79
2021/12/13 11:29:32;;;;;;;;;;;3.10;99.90;;;;;;4999598;28;20238;-79
2021/12/13 11:32:14;;;;;;;;;;;3.10;99.90;;;;;;5002117;28;19934;-79
2021/12/13 11:34:48;;;;;;;;;;;3.20;99.90;;;;;;5003875;28;19926;-78
2021/12/13 11:37:45;;;;;;;;;;;3.20;99.90;;;;;;4996628;28;19926;-79
2021/12/13 11:40:21;;;;;;;;;;;3.20;99.90;;;;;;4943374;28;19927;-79
2021/12/13 11:43:15;;;;;;;;;;;3.20;99.90;;;;;;5063597;22;19956;-84
2021/12/13 11:46:07;;;;;;;;;;;3.20;99.90;;;;;;4975240;28;20299;-84
2021/12/13 11:48:51;;;;;;;;;;;3.20;99.90;;;;;;5001949;28;19933;-84
2021/12/13 11:51:36;;;;;;;;;;;3.20;99.90;;;;;;5002662;28;19925;-84
2021/12/13 11:54:22;;;;;;;;;;;3.30;99.90;;;;;;5004522;28;20296;-82
2021/12/13 11:57:03;;;;;;;;;;;3.20;99.90;;;;;;5005225;28;19938;-83
2021/12/13 11:59:35;;;;;;;;;;;3.30;99.90;;;;;;5000185;28;19932;-85
2021/12/13 12:02:08;;;;;;;;;;;3.30;99.90;;;;;;5005192;28;19926;-86
2021/12/13 12:04:50;;;;;;;;;;;3.30;99.90;;;;;;5009422;28;19925;-85
2021/12/13 12:07:38;;;;;;;;;;;3.30;99.90;;;;;;4991560;28;19929;-84
2021/12/13 12:10:20;;;;;;;;;;;3.30;99.90;;;;;;4996251;28;20017;-82
2021/12/13 12:12:58;;;;;;;;;;;3.30;99.90;;;;;;5004361;28;20474;-85
2021/12/13 12:15:26;;;;;;;;;;;3.40;99.90;;;;;;4996303;28;20028;-84
2021/12/13 12:17:56;;;;;;;;;;;3.50;99.90;;;;;;5002571;28;20403;-84
2021/12/13 12:20:26;;;;;;;;;;;3.50;99.90;;;;;;4996761;28;20367;-83
2021/12/13 12:22:54;;;;;;;;;;;3.50;99.90;;;;;;4995175;28;19933;-83
2021/12/13 12:25:23;;;;;;;;;;;3.50;99.90;;;;;;5001584;28;19953;-83
2021/12/13 12:27:52;;;;;;;;;;;3.50;99.90;;;;;;5000739;28;19957;-84
2021/12/13 12:30:21;;;;;;;;;;;3.60;99.90;;;;;;4991408;28;19972;-84
2021/12/13 12:32:51;;;;;;;;;;;3.60;99.90;;;;;;5002865;28;21187;-83
2021/12/13 12:35:20;;;;;;;;;;;3.60;99.90;;;;;;5004436;28;19937;-85
2021/12/13 12:38:03;;;;;;;;;;;3.60;99.90;;;;;;5001821;28;19925;-84
2021/12/13 12:40:33;;;;;;;;;;;3.60;99.90;;;;;;5001537;28;19969;-84
2021/12/13 12:43:01;;;;;;;;;;;3.60;99.90;;;;;;4999175;28;20272;-82
2021/12/13 12:45:31;;;;;;;;;;;3.70;99.90;;;;;;5003309;28;19929;-83
2021/12/13 12:48:15;;;;;;;;;;;3.70;99.90;;;;;;5003031;28;19952;-84
2021/12/13 12:50:49;;;;;;;;;;;3.70;99.90;;;;;;5014765;28;19936;-85
2021/12/13 12:53:18;;;;;;;;;;;3.70;99.90;;;;;;5018451;28;19961;-84
2021/12/13 12:55:47;;;;;;;;;;;3.70;99.90;;;;;;5003637;28;19925;-85
2021/12/13 12:58:15;;;;;;;;;;;3.70;99.90;;;;;;5002566;28;19932;-84
2021/12/13 13:00:44;;;;;;;;;;;3.70;99.90;;;;;;5004473;28;19926;-85
2021/12/13 13:03:14;;;;;;;;;;;3.70;99.90;;;;;;5004315;28;19925;-84
2021/12/13 13:05:42;;;;;;;;;;;3.70;99.90;;;;;;5005964;28;20309;-84
2021/12/13 13:08:11;;;;;;;;;;;3.70;99.90;;;;;;5006372;28;20334;-84
2021/12/13 13:10:50;;;;;;;;;;;3.70;99.90;;;;;;5004688;28;20045;-84
2021/12/13 13:13:18;;;;;;;;;;;3.80;99.90;;;;;;5004689;28;19925;-83
2021/12/13 13:15:47;;;;;;;;;;;3.80;99.90;;;;;;5000135;28;19941;-84
2021/12/13 13:18:15;;;;;;;;;;;3.80;99.90;;;;;;4995627;28;20387;-84
2021/12/13 13:20:44;;;;;;;;;;;3.80;99.90;;;;;;4999537;28;20435;-82
2021/12/13 13:23:13;;;;;;;;;;;3.80;99.90;;;;;;5000709;28;20224;-83
2021/12/13 13:25:41;;;;;;;;;;;3.80;99.90;;;;;;4997864;28;20013;-83
2021/12/13 13:28:15;;;;;;;;;;;3.80;99.90;;;;;;4998084;28;19933;-84
2021/12/13 13:30:44;;;;;;;;;;;3.80;99.90;;;;;;5002797;28;19940;-84
2021/12/13 13:33:11;;;;;;;;;;;3.80;99.90;;;;;;4995884;28;20435;-84
2021/12/13 13:35:38;;;;;;;;;;;3.80;99.90;;;;;;4999503;28;19930;-85
2021/12/13 13:38:06;;;;;;;;;;;3.80;99.90;;;;;;5000436;28;19932;-84
2021/12/13 13:40:36;;;;;;;;;;;3.80;99.90;;;;;;5005412;28;19972;-84
2021/12/13 13:43:04;;;;;;;;;;;3.80;99.90;;;;;;4998590;28;19926;-84
2021/12/13 13:45:34;;;;;;;;;;;3.90;99.90;;;;;;5004667;28;20024;-84
2021/12/13 13:48:02;;;;;;;;;;;3.90;99.90;;;;;;5004094;28;20302;-84
2021/12/13 13:50:30;;;;;;;;;;;3.90;99.90;;;;;;5002205;28;19972;-86
2021/12/13 13:52:59;;;;;;;;;;;3.90;99.90;;;;;;5000542;28;19936;-85
2021/12/13 13:55:28;;;;;;;;;;;3.90;99.90;;;;;;5004243;28;20547;-84
2021/12/13 13:57:57;;;;;;;;;;;3.90;99.90;;;;;;5007832;28;20298;-84
2021/12/13 14:00:25;;;;;;;;;;;3.90;99.90;;;;;;4999816;28;19979;-85
2021/12/13 14:02:52;;;;;;;;;;;3.90;99.90;;;;;;5001778;28;20303;-86
2021/12/13 14:05:19;;;;;;;;;;;3.90;99.90;;;;;;5011784;28;20370;-85
2021/12/13 14:07:46;;;;;;;;;;;3.90;99.90;;;;;;5006489;28;19949;-85
2021/12/13 14:10:14;;;;;;;;;;;3.90;99.90;;;;;;4998588;28;20028;-85
2021/12/13 14:12:44;;;;;;;;;;;3.90;99.90;;;;;;5002085;28;19992;-85
2021/12/13 14:15:14;;;;;;;;;;;3.90;99.90;;;;;;5001773;28;20016;-85
2021/12/13 14:17:44;;;;;;;;;;;3.90;99.90;;;;;;4997336;28;19933;-85
2021/12/13 14:20:16;;;;;;;;;;;3.90;99.90;;;;;;4994515;28;20292;-85
2021/12/13 14:22:44;;;;;;;;;;;3.90;99.90;;;;;;5002451;28;19976;-85
2021/12/13 14:25:11;;;;;;;;;;;3.90;99.90;;;;;;5006200;28;19930;-84
2021/12/13 14:27:38;;;;;;;;;;;3.90;99.90;;;;;;5005514;28;19927;-85
2021/12/13 14:30:11;;;;;;;;;;;3.90;99.90;;;;;;5006798;28;19934;-85
2021/12/13 14:32:40;;;;;;;;;;;3.90;99.90;;;;;;5001901;28;20312;-85
2021/12/13 14:35:12;;;;;;;;;;;4.00;99.90;;;;;;5004268;28;19934;-86
2021/12/13 14:37:39;;;;;;;;;;;4.00;99.90;;;;;;5013501;28;19961;-85
2021/12/13 14:40:07;;;;;;;;;;;4.00;99.90;;;;;;5012700;28;19948;-85
2021/12/13 14:42:34;;;;;;;;;;;3.90;99.90;;;;;;5012286;28;19996;-84
2021/12/13 14:45:03;;;;;;;;;;;3.90;99.90;;;;;;5007727;28;19937;-85
2021/12/13 14:47:34;;;;;;;;;;;3.90;99.90;;;;;;5004461;28;19936;-86
2021/12/13 14:50:09;;;;;;;;;;;3.90;99.90;;;;;;4992119;28;19929;-85
2021/12/13 14:52:43;;;;;;;;;;;3.90;99.90;;;;;;5003521;28;19955;-85